Time;durP1;ratioP1;P1;durP2;ratioP2;P2;SDS_P1;SDS_P2;PMS_P1;PMS_P2;Temp;Humidity;BMP_temperature;BMP_pressure;BME280_temperature;BME280_humidity;BME280_pressure;Samples;Min_cycle;Max_cycle;Signal;HPM_P1;HPM_P2
2021/10/28 00:12:13;;;;;;;33.20;22.70;;;8.00;86.30;;;;;;5114698;28;20489;-73
2021/10/28 00:12:22;;;;;;;33.33;23.52;;;8.00;86.40;;;;;;5114569;28;20101;-77
2021/10/28 00:14:56;;;;;;;32.72;22.67;;;8.00;86.60;;;;;;5114399;28;20018;-75
2021/10/28 00:17:39;;;;;;;34.22;22.95;;;8.00;86.80;;;;;;5114461;28;20411;-74
2021/10/28 00:20:06;;;;;;;34.58;22.50;;;8.10;86.90;;;;;;5114472;28;20451;-74
2021/10/28 00:22:33;;;;;;;33.60;23.30;;;8.10;86.90;;;;;;5114133;28;20535;-76
2021/10/28 00:24:59;;;;;;;32.78;22.40;;;8.00;86.60;;;;;;5114349;28;20024;-77
2021/10/28 00:27:25;;;;;;;31.80;22.25;;;8.10;86.70;;;;;;5114274;28;20031;-76
2021/10/28 00:29:52;;;;;;;33.83;22.40;;;8.00;86.70;;;;;;5114272;28;20024;-77
2021/10/28 00:32:18;;;;;;;34.53;23.55;;;8.00;86.80;;;;;;5114232;28;20057;-75
2021/10/28 00:34:43;;;;;;;34.00;23.70;;;8.00;87.20;;;;;;5114017;28;20035;-76
2021/10/28 00:37:10;;;;;;;30.80;21.77;;;7.90;87.20;;;;;;5114015;28;20035;-75
2021/10/28 00:39:36;;;;;;;32.58;23.10;;;7.90;87.50;;;;;;5095532;28;20077;-77
2021/10/28 00:42:03;;;;;;;35.83;24.08;;;7.90;87.40;;;;;;5114151;28;20055;-77
2021/10/28 00:44:28;;;;;;;27.85;20.35;;;8.00;87.20;;;;;;5113839;28;20031;-75
2021/10/28 00:46:54;;;;;;;32.22;22.88;;;8.00;87.10;;;;;;5113838;28;20068;-76
2021/10/28 00:49:19;;;;;;;33.83;23.50;;;8.00;87.10;;;;;;5095601;28;20054;-74
2021/10/28 00:51:45;;;;;;;33.42;23.20;;;8.00;87.00;;;;;;5113962;28;20020;-75
2021/10/28 00:54:17;;;;;;;30.95;22.08;;;8.00;87.10;;;;;;5113588;28;20537;-73
2021/10/28 00:56:43;;;;;;;34.15;22.55;;;7.90;87.60;;;;;;5113670;28;20126;-73
2021/10/28 00:59:10;;;;;;;34.33;21.95;;;8.00;87.40;;;;;;5113693;28;20023;-73
2021/10/28 01:01:36;;;;;;;31.58;22.27;;;8.00;87.40;;;;;;5113983;28;20027;-76
2021/10/28 01:04:03;;;;;;;31.50;22.45;;;8.00;87.50;;;;;;5095413;28;20020;-76
2021/10/28 01:06:29;;;;;;;35.50;22.25;;;8.00;87.50;;;;;;5113502;28;20020;-73
2021/10/28 01:08:55;;;;;;;30.02;21.30;;;8.00;87.40;;;;;;5113612;28;20125;-73
2021/10/28 01:11:21;;;;;;;29.45;20.95;;;8.00;87.40;;;;;;5113558;28;20201;-73
2021/10/28 01:13:47;;;;;;;30.05;19.73;;;7.90;87.00;;;;;;5113576;28;20551;-74
2021/10/28 01:16:12;;;;;;;28.25;20.02;;;8.00;86.90;;;;;;5095140;28;20035;-73
2021/10/28 01:18:39;;;;;;;29.08;20.13;;;7.90;86.70;;;;;;5113510;28;20024;-73
2021/10/28 01:21:07;;;;;;;31.02;20.88;;;7.90;86.60;;;;;;5113494;28;20103;-73
2021/10/28 01:23:33;;;;;;;30.75;21.80;;;7.90;86.60;;;;;;5113274;28;20107;-73
2021/10/28 01:26:04;;;;;;;30.17;21.13;;;7.90;86.60;;;;;;5113388;28;20023;-73
2021/10/28 01:28:32;;;;;;;30.27;21.80;;;7.90;86.80;;;;;;5095092;28;20024;-72
2021/10/28 01:31:02;;;;;;;31.00;21.17;;;7.90;87.00;;;;;;5113451;28;20019;-74
2021/10/28 01:33:27;;;;;;;36.45;23.25;;;7.80;87.20;;;;;;5113284;28;20066;-73
2021/10/28 01:35:54;;;;;;;31.67;22.15;;;7.80;87.50;;;;;;5113178;28;20070;-75
2021/10/28 01:38:20;;;;;;;31.77;21.38;;;7.80;87.70;;;;;;5113080;28;20032;-72
2021/10/28 01:40:57;;;;;;;31.73;22.10;;;7.80;87.70;;;;;;5113488;28;20039;-72
2021/10/28 01:43:24;;;;;;;32.20;22.15;;;7.70;87.80;;;;;;5113198;28;20421;-72
2021/10/28 01:45:50;;;;;;;31.80;22.75;;;7.80;87.80;;;;;;5113289;28;20036;-72
2021/10/28 01:48:17;;;;;;;31.20;21.38;;;7.70;87.90;;;;;;5113330;28;20488;-73
2021/10/28 01:50:43;;;;;;;31.77;22.00;;;7.70;87.90;;;;;;5115586;28;20376;-75
2021/10/28 01:53:12;;;;;;;28.60;20.10;;;7.70;87.80;;;;;;5117289;28;20027;-73
2021/10/28 01:55:38;;;;;;;33.35;22.60;;;7.70;87.90;;;;;;5117209;28;20364;-72
2021/10/28 01:58:06;;;;;;;30.55;21.33;;;7.70;87.90;;;;;;5117181;28;20027;-73
2021/10/28 02:00:33;;;;;;;32.55;22.73;;;7.70;88.00;;;;;;5117212;28;20548;-75
2021/10/28 02:02:58;;;;;;;30.00;21.83;;;7.70;87.90;;;;;;5117098;28;20019;-76
2021/10/28 02:05:24;;;;;;;28.90;20.90;;;7.70;87.80;;;;;;5117105;28;20098;-73
2021/10/28 02:07:50;;;;;;;31.17;21.27;;;7.70;87.80;;;;;;5116822;28;20022;-73
2021/10/28 02:10:18;;;;;;;28.55;20.30;;;7.60;87.70;;;;;;5117142;28;20066;-77
2021/10/28 02:12:46;;;;;;;33.92;22.02;;;7.60;88.00;;;;;;5098724;28;20395;-77
2021/10/28 02:15:13;;;;;;;31.40;21.88;;;7.60;88.20;;;;;;5116934;28;20024;-73
2021/10/28 02:17:39;;;;;;;30.35;21.35;;;7.60;88.20;;;;;;5116891;28;20027;-73
2021/10/28 02:20:06;;;;;;;28.52;20.42;;;7.60;88.20;;;;;;5116968;28;20544;-72
2021/10/28 02:22:32;;;;;;;29.13;21.88;;;7.70;88.20;;;;;;5098508;28;20032;-77
2021/10/28 02:24:59;;;;;;;28.33;20.75;;;7.70;88.40;;;;;;5116880;28;20030;-77
2021/10/28 02:27:25;;;;;;;28.73;20.75;;;7.60;88.30;;;;;;5116617;28;20024;-78
2021/10/28 02:29:51;;;;;;;30.83;21.77;;;7.60;88.40;;;;;;5116878;28;20036;-76
2021/10/28 02:32:17;;;;;;;29.40;21.27;;;7.60;88.30;;;;;;5116579;28;20026;-78
2021/10/28 02:34:43;;;;;;;27.83;19.88;;;7.60;88.40;;;;;;5098335;28;20027;-77
2021/10/28 02:37:09;;;;;;;30.63;20.63;;;7.60;88.70;;;;;;5116662;28;20126;-77
2021/10/28 02:39:35;;;;;;;30.65;20.70;;;7.60;88.70;;;;;;5116365;28;20079;-77
2021/10/28 02:42:01;;;;;;;27.42;20.25;;;7.60;88.50;;;;;;5116535;28;20038;-76
2021/10/28 02:44:26;;;;;;;30.15;20.65;;;7.60;88.20;;;;;;5116348;28;20029;-76
2021/10/28 02:46:52;;;;;;;29.00;20.85;;;7.60;88.10;;;;;;5116405;28;20020;-77
2021/10/28 02:49:18;;;;;;;31.30;20.63;;;7.60;87.80;;;;;;5116407;28;20030;-76
2021/10/28 02:51:47;;;;;;;27.83;20.42;;;7.60;88.10;;;;;;5116383;28;20046;-76
2021/10/28 02:54:22;;;;;;;29.15;20.30;;;7.60;88.30;;;;;;5116210;28;20028;-77
2021/10/28 02:56:48;;;;;;;28.98;20.63;;;7.60;88.40;;;;;;5116139;28;20024;-75
2021/10/28 02:59:15;;;;;;;30.48;20.75;;;7.60;88.70;;;;;;5115866;28;20110;-76
2021/10/28 03:01:45;;;;;;;29.63;20.73;;;7.60;88.70;;;;;;5115695;28;20476;-76
2021/10/28 03:04:12;;;;;;;28.77;21.45;;;7.60;88.70;;;;;;5097671;28;20028;-76
2021/10/28 03:06:40;;;;;;;30.85;21.02;;;7.50;88.90;;;;;;5116046;28;20038;-73
2021/10/28 03:09:07;;;;;;;28.00;20.80;;;7.60;89.00;;;;;;5115911;28;20058;-74
2021/10/28 03:11:33;;;;;;;27.27;19.77;;;7.60;88.90;;;;;;5115951;28;20028;-72
2021/10/28 03:13:58;;;;;;;25.98;18.77;;;7.60;88.70;;;;;;5115743;28;20031;-73
2021/10/28 03:27:25;;;;;;;23.02;16.02;;;7.80;88.00;;;;;;5115516;28;20030;-74
2021/10/28 03:29:50;;;;;;;26.67;17.80;;;7.80;87.80;;;;;;5115324;28;20685;-73
2021/10/28 03:32:18;;;;;;;26.50;18.92;;;7.80;87.80;;;;;;5115289;28;20107;-73
2021/10/28 03:34:45;;;;;;;26.00;18.33;;;7.80;87.60;;;;;;5115183;28;20438;-74
2021/10/28 03:37:20;;;;;;;26.88;19.15;;;7.80;87.50;;;;;;5115162;28;20123;-73
2021/10/28 04:08:54;;;;;;;34.15;22.38;;;8.10;87.30;;;;;;5071868;28;20143;-78
2021/10/28 04:30:12;;;;;;;35.55;23.63;;;8.30;87.60;;;;;;5114269;28;20533;-73
2021/10/28 04:32:38;;;;;;;33.38;23.20;;;8.20;87.60;;;;;;5114168;28;20077;-73
2021/10/28 04:35:04;;;;;;;36.47;23.45;;;8.20;87.60;;;;;;5113947;28;20115;-73
2021/10/28 04:37:30;;;;;;;35.38;24.35;;;8.20;87.60;;;;;;5113830;28;20107;-74
2021/10/28 04:39:56;;;;;;;36.15;22.92;;;8.20;87.70;;;;;;5113963;28;20541;-77
2021/10/28 04:42:21;;;;;;;39.17;23.92;;;8.20;87.60;;;;;;5113444;28;20032;-73
2021/10/28 04:44:47;;;;;;;34.13;24.08;;;8.20;87.50;;;;;;5113945;28;20015;-73
2021/10/28 04:47:13;;;;;;;35.42;23.17;;;8.30;87.40;;;;;;5113702;28;20027;-73
2021/10/28 04:49:38;;;;;;;34.92;23.35;;;8.20;87.50;;;;;;5095765;28;20031;-73
2021/10/28 04:52:05;;;;;;;31.48;21.20;;;8.20;87.30;;;;;;5118665;28;20028;-73
2021/10/28 04:54:31;;;;;;;38.63;23.08;;;8.20;87.20;;;;;;5113794;28;20020;-72
2021/10/28 04:56:57;;;;;;;37.78;24.42;;;8.30;87.20;;;;;;5113861;28;20138;-75
2021/10/28 04:59:22;;;;;;;40.35;25.52;;;8.20;87.30;;;;;;5114182;28;20121;-72
2021/10/28 05:01:48;;;;;;;36.72;24.35;;;8.20;87.30;;;;;;5113420;28;20024;-74
2021/10/28 05:04:14;;;;;;;37.38;24.00;;;8.20;87.20;;;;;;5113386;28;20062;-73
2021/10/28 05:06:39;;;;;;;39.25;24.90;;;8.20;87.30;;;;;;5113453;28;20088;-72
2021/10/28 05:09:05;;;;;;;39.45;25.55;;;8.20;87.30;;;;;;5113404;28;20460;-72
2021/10/28 05:11:31;;;;;;;40.22;24.95;;;8.20;87.20;;;;;;5113334;28;20019;-72
2021/10/28 05:13:56;;;;;;;39.22;24.65;;;8.10;87.10;;;;;;5113324;28;20019;-73
2021/10/28 05:16:22;;;;;;;36.78;22.55;;;8.10;87.20;;;;;;5113016;28;20093;-72
2021/10/28 05:18:48;;;;;;;38.67;24.92;;;8.10;87.40;;;;;;5113185;28;20015;-74
2021/10/28 05:21:15;;;;;;;37.35;24.48;;;8.10;87.40;;;;;;5113002;28;20024;-72
2021/10/28 05:23:41;;;;;;;36.83;24.60;;;8.10;88.40;;;;;;5112883;28;20028;-74
2021/10/28 05:26:08;;;;;;;41.08;24.85;;;8.10;87.50;;;;;;5112841;28;20020;-73
2021/10/28 05:28:34;;;;;;;38.00;24.65;;;8.10;87.30;;;;;;5113069;28;20026;-74
2021/10/28 05:31:01;;;;;;;39.40;24.42;;;8.10;87.20;;;;;;5113039;28;20035;-72
2021/10/28 05:33:27;;;;;;;36.88;24.02;;;8.10;87.10;;;;;;5113070;28;20016;-72
2021/10/28 05:35:53;;;;;;;37.45;24.63;;;8.10;87.00;;;;;;5113024;28;20036;-73
2021/10/28 05:38:18;;;;;;;43.45;25.90;;;8.20;86.80;;;;;;5112864;28;20054;-74
2021/10/28 05:40:44;;;;;;;42.22;26.38;;;8.20;86.50;;;;;;5113123;28;20028;-74
2021/10/28 05:43:11;;;;;;;41.50;25.05;;;8.20;86.40;;;;;;5113007;28;20020;-73
2021/10/28 05:45:37;;;;;;;40.88;26.08;;;8.20;86.40;;;;;;5112941;28;20027;-74
2021/10/28 05:48:04;;;;;;;40.25;23.95;;;8.20;86.30;;;;;;5112909;28;20031;-74
2021/10/28 05:50:30;;;;;;;39.63;24.83;;;8.20;86.10;;;;;;5094667;28;20383;-75
2021/10/28 05:52:58;;;;;;;35.65;23.20;;;8.10;86.00;;;;;;5112964;28;20026;-75
2021/10/28 05:55:24;;;;;;;41.40;24.85;;;8.10;86.10;;;;;;5112609;28;20071;-72
2021/10/28 05:57:52;;;;;;;44.33;25.70;;;8.20;85.90;;;;;;5112979;28;20020;-71
2021/10/28 06:00:19;;;;;;;41.42;24.70;;;8.20;85.90;;;;;;5113014;28;20020;-72
2021/10/28 06:02:45;;;;;;;38.60;23.73;;;8.20;85.90;;;;;;5113091;28;20107;-72
2021/10/28 06:05:11;;;;;;;40.95;24.88;;;8.20;85.90;;;;;;5113082;28;20112;-71
2021/10/28 06:07:37;;;;;;;36.13;22.85;;;8.20;85.90;;;;;;5113072;28;20102;-72
2021/10/28 06:10:04;;;;;;;40.55;24.92;;;8.20;85.90;;;;;;5112873;28;20051;-75
2021/10/28 06:12:35;;;;;;;38.35;25.85;;;8.20;85.70;;;;;;5112945;28;20089;-74
2021/10/28 06:15:03;;;;;;;39.15;24.88;;;8.20;85.80;;;;;;5112513;28;20011;-73
2021/10/28 06:17:38;;;;;;;38.58;22.90;;;8.20;85.70;;;;;;5112311;28;20115;-75
2021/10/28 06:20:04;;;;;;;39.78;23.42;;;8.20;85.60;;;;;;5112596;28;20149;-74
2021/10/28 06:22:30;;;;;;;39.45;23.90;;;8.20;85.50;;;;;;5112147;28;20117;-73
2021/10/28 06:24:57;;;;;;;40.28;24.73;;;8.30;85.60;;;;;;5112457;28;20020;-73
2021/10/28 06:27:23;;;;;;;41.13;24.02;;;8.20;85.50;;;;;;5112442;28;20035;-75
2021/10/28 06:29:49;;;;;;;40.38;24.25;;;8.20;85.80;;;;;;5094331;28;20121;-73
2021/10/28 06:32:15;;;;;;;41.92;25.75;;;8.10;85.90;;;;;;5112685;28;20034;-73
2021/10/28 06:34:43;;;;;;;39.00;23.83;;;8.20;86.00;;;;;;5112699;28;20098;-76
2021/10/28 06:37:10;;;;;;;42.45;25.63;;;8.10;86.00;;;;;;5115483;28;20214;-73
2021/10/28 06:39:36;;;;;;;40.28;25.80;;;8.20;86.00;;;;;;5115889;28;20601;-73
2021/10/28 06:42:03;;;;;;;40.45;24.98;;;8.20;86.00;;;;;;5115882;28;20034;-73
2021/10/28 06:44:30;;;;;;;39.97;24.23;;;8.20;85.90;;;;;;5115952;28;20073;-73
2021/10/28 06:46:55;;;;;;;36.75;22.42;;;8.20;85.80;;;;;;5116434;28;20027;-73
2021/10/28 06:49:22;;;;;;;41.10;24.73;;;8.20;85.60;;;;;;5117619;28;20442;-72
2021/10/28 06:51:48;;;;;;;39.75;22.58;;;8.30;85.40;;;;;;5118033;28;20516;-72
2021/10/28 06:57:16;;;;;;;35.28;21.55;;;8.40;85.00;;;;;;5117631;28;20096;-75
2021/10/28 07:03:03;;;;;;;34.60;22.27;;;8.50;84.60;;;;;;5098930;28;20031;-72
2021/10/28 07:05:29;;;;;;;35.92;22.27;;;8.50;84.50;;;;;;5096371;28;20032;-76
2021/10/28 07:07:55;;;;;;;34.22;22.00;;;8.50;84.30;;;;;;5100336;28;20088;-74
2021/10/28 07:10:23;;;;;;;34.30;21.77;;;8.60;84.00;;;;;;5096044;28;20044;-73
2021/10/28 07:15:33;;;;;;;33.83;21.63;;;8.60;83.50;;;;;;5095148;28;20353;-76
2021/10/28 07:28:23;;;;;;;30.55;18.90;;;8.80;82.50;;;;;;5096552;28;20016;-76
2021/10/28 07:31:17;;;;;;;29.83;18.75;;;8.90;82.20;;;;;;5079783;28;20068;-75
2021/10/28 08:13:54;;;;;;;16.85;11.70;;;11.30;72.00;;;;;;5094629;28;20564;-76
2021/10/28 08:19:07;;;;;;;16.13;11.25;;;11.60;71.90;;;;;;5094326;28;20039;-78
2021/10/28 08:29:33;;;;;;;15.75;10.98;;;12.30;70.30;;;;;;5093950;28;20090;-77
2021/10/28 08:31:57;;;;;;;14.85;10.68;;;12.40;69.10;;;;;;5092487;28;20050;-77
2021/10/28 08:34:36;;;;;;;14.93;10.93;;;12.60;69.00;;;;;;5093585;28;20028;-77
2021/10/28 08:37:18;;;;;;;19.08;13.48;;;12.70;68.00;;;;;;5093686;28;20024;-77
2021/10/28 08:39:50;;;;;;;21.90;14.55;;;12.80;67.90;;;;;;5093136;28;20044;-77
2021/10/28 08:42:18;;;;;;;19.95;13.70;;;13.00;67.90;;;;;;5093210;28;20082;-77
2021/10/28 08:44:49;;;;;;;14.63;10.57;;;12.90;68.00;;;;;;5093319;28;20020;-76
2021/10/28 08:47:16;;;;;;;22.98;14.18;;;12.80;70.10;;;;;;5093437;28;20020;-76
2021/10/28 08:50:29;;;;;;;20.13;13.68;;;13.00;68.20;;;;;;5093201;28;20480;-76
2021/10/28 08:52:46;;;;;;;22.20;14.27;;;12.80;67.90;;;;;;5081805;28;20039;-77
2021/10/28 09:49:51;;;;;;;13.48;9.60;;;15.20;59.70;;;;;;5092490;28;20060;-78
2021/10/28 09:51:50;;;;;;;13.18;9.70;;;15.40;59.30;;;;;;5091862;28;20024;-78
2021/10/28 09:54:33;;;;;;;15.00;9.85;;;15.70;58.60;;;;;;5092418;28;20024;-77
2021/10/28 09:59:46;;;;;;;12.02;8.50;;;16.40;56.50;;;;;;5092379;28;20030;-78
2021/10/28 10:05:05;;;;;;;11.55;8.52;;;17.20;53.30;;;;;;5092305;28;20226;-77
2021/10/28 10:07:31;;;;;;;10.52;8.35;;;17.00;52.50;;;;;;5092129;28;20024;-79
2021/10/28 10:09:59;;;;;;;11.48;7.63;;;17.10;52.90;;;;;;5092200;28;20039;-78
2021/10/28 10:12:25;;;;;;;11.27;8.02;;;17.40;51.50;;;;;;5095269;28;20461;-78
2021/10/28 10:14:51;;;;;;;8.43;7.25;;;17.40;51.80;;;;;;5096103;28;20103;-78
2021/10/28 10:17:17;;;;;;;11.32;8.15;;;17.70;51.40;;;;;;5096012;28;20032;-79
2021/10/28 10:19:45;;;;;;;14.20;8.85;;;18.00;50.90;;;;;;5095722;28;20035;-78
2021/10/28 11:23:20;;;;;;;4.45;2.60;;;21.80;32.80;;;;;;5094555;28;20636;-79
2021/10/28 12:01:25;;;;;;;6.63;2.58;;;21.30;33.90;;;;;;5094771;28;20108;-76
2021/10/28 12:13:56;;;;;;;5.97;2.38;;;24.00;31.10;;;;;;5094481;28;20024;-77
2021/10/28 12:22:05;;;;;;;2.15;1.40;;;25.20;28.30;;;;;;5093560;28;20075;-74
2021/10/28 12:46:32;;;;;;;3.15;1.60;;;26.60;27.40;;;;;;5093563;28;20474;-75
2021/10/28 13:35:09;;;;;;;;;;;32.60;18.10;;;;;;5093911;28;20030;-81
2021/10/28 13:55:36;;;;;;;2.08;1.70;;;38.50;11.60;;;;;;5080781;28;20028;-82
2021/10/28 14:14:45;;;;;;;1.90;1.70;;;39.50;10.40;;;;;;5051930;28;20039;-76
2021/10/28 14:28:08;;;;;;;2.67;1.73;;;43.40;7.80;;;;;;5096697;28;20032;-76
2021/10/28 14:36:32;;;;;;;3.40;1.40;;;43.50;7.60;;;;;;5014993;28;20554;-75
2021/10/28 15:01:27;;;;;;;1.10;1.00;;;41.10;10.10;;;;;;5095305;28;20455;-81
2021/10/28 15:28:39;;;;;;;5.53;2.78;;;22.20;39.00;;;;;;5094909;28;19911;-80
2021/10/28 15:42:24;;;;;;;2.88;1.60;;;19.20;48.10;;;;;;5094790;28;20024;-77
2021/10/28 15:58:30;;;;;;;6.68;3.60;;;18.50;49.90;;;;;;5100257;28;20042;-79
2021/10/28 16:01:07;;;;;;;5.45;3.30;;;18.30;49.90;;;;;;5094194;28;20092;-78
2021/10/28 16:22:49;;;;;;;;;;;15.60;59.60;;;;;;5094705;28;20067;-80
2021/10/28 16:25:17;;;;;;;6.45;3.42;;;15.40;60.90;;;;;;5093495;28;19977;-79
2021/10/28 16:27:43;;;;;;;9.43;4.30;;;15.10;62.00;;;;;;5076871;28;20044;-77
2021/10/28 16:30:09;;;;;;;8.95;5.80;;;15.00;63.80;;;;;;5075550;28;20467;-78
2021/10/28 16:32:36;;;;;;;9.23;4.60;;;14.80;63.20;;;;;;5075418;28;20059;-76
2021/10/28 16:35:05;;;;;;;5.90;3.42;;;14.60;63.90;;;;;;5093589;28;20461;-78
2021/10/28 16:37:32;;;;;;;10.30;4.72;;;14.50;64.80;;;;;;5074497;28;20047;-75
2021/10/28 16:39:59;;;;;;;6.32;3.78;;;14.30;65.60;;;;;;5093240;28;20127;-79
2021/10/28 16:42:27;;;;;;;8.38;3.72;;;14.20;66.60;;;;;;5093562;28;20056;-77
2021/10/28 16:44:53;;;;;;;7.68;3.38;;;14.30;68.90;;;;;;5093086;28;20042;-75
2021/10/28 16:47:20;;;;;;;7.70;3.50;;;14.40;71.70;;;;;;5074758;28;20024;-76
2021/10/28 16:49:46;;;;;;;9.70;4.50;;;14.60;69.80;;;;;;5093452;28;20028;-76
2021/10/28 16:52:11;;;;;;;8.05;4.22;;;14.90;67.50;;;;;;5075117;28;20120;-77
2021/10/28 16:54:37;;;;;;;10.30;4.80;;;14.90;64.50;;;;;;5075268;28;20036;-77
2021/10/28 16:57:05;;;;;;;7.45;4.30;;;14.70;64.20;;;;;;5075387;28;20066;-77
2021/10/28 16:59:30;;;;;;;7.63;4.25;;;14.70;65.20;;;;;;5075216;28;20024;-77
2021/10/28 17:01:56;;;;;;;8.13;4.15;;;14.60;64.10;;;;;;5092978;28;20443;-78
2021/10/28 17:04:21;;;;;;;7.10;3.67;;;14.60;64.60;;;;;;5093176;28;20024;-78
2021/10/28 17:06:51;;;;;;;9.30;4.65;;;14.50;63.20;;;;;;5074905;28;20073;-77
2021/10/28 17:09:16;;;;;;;9.63;3.58;;;14.30;63.60;;;;;;5075849;28;20055;-78
2021/10/28 17:11:42;;;;;;;7.22;4.43;;;14.00;64.40;;;;;;5093199;28;20461;-78
2021/10/28 17:14:08;;;;;;;8.85;4.25;;;13.90;65.60;;;;;;5074980;28;20047;-78
2021/10/28 17:16:36;;;;;;;5.55;3.55;;;13.70;66.20;;;;;;5093005;28;20420;-77
2021/10/28 17:19:02;;;;;;;6.28;3.80;;;13.50;66.80;;;;;;5093201;28;20016;-78
2021/10/28 17:21:29;;;;;;;11.13;3.83;;;13.40;68.40;;;;;;5074701;28;20428;-78
2021/10/28 17:24:02;;;;;;;9.38;4.30;;;13.30;67.80;;;;;;5093180;28;20102;-80
2021/10/28 17:26:33;;;;;;;8.32;4.82;;;13.20;68.10;;;;;;5074742;28;20059;-79
2021/10/28 17:29:00;;;;;;;8.65;5.32;;;13.10;68.50;;;;;;5056244;28;20020;-80
2021/10/28 17:31:32;;;;;;;8.20;5.15;;;12.90;69.00;;;;;;5072580;28;20051;-79
2021/10/28 17:33:59;;;;;;;7.75;4.63;;;12.80;69.50;;;;;;5072118;28;20079;-79
2021/10/28 17:36:26;;;;;;;8.60;4.93;;;12.60;70.20;;;;;;5072038;28;20036;-78
2021/10/28 17:38:52;;;;;;;8.63;5.00;;;12.40;71.10;;;;;;5079481;28;20047;-79
2021/10/28 17:41:19;;;;;;;9.38;6.20;;;12.20;72.00;;;;;;5093390;28;20024;-78
2021/10/28 17:43:50;;;;;;;14.73;6.65;;;12.10;72.60;;;;;;5093996;28;20031;-79
2021/10/28 17:46:15;;;;;;;12.98;6.35;;;12.10;72.90;;;;;;5112754;28;20567;-76
2021/10/28 17:48:41;;;;;;;11.65;6.10;;;12.00;72.90;;;;;;5114017;28;20028;-79
2021/10/28 17:51:07;;;;;;;12.80;6.57;;;12.00;73.40;;;;;;5096223;28;20040;-78
2021/10/28 17:53:33;;;;;;;9.73;5.82;;;11.90;73.60;;;;;;5093178;28;20026;-78
2021/10/28 17:55:58;;;;;;;9.32;6.22;;;11.80;73.80;;;;;;5092819;28;20020;-78
2021/10/28 17:58:24;;;;;;;8.98;6.38;;;11.80;74.20;;;;;;5092713;28;20035;-78
2021/10/28 18:00:50;;;;;;;11.50;6.15;;;11.70;74.60;;;;;;5092015;28;20016;-79
2021/10/28 18:03:19;;;;;;;12.90;6.55;;;11.60;74.50;;;;;;5092789;28;20028;-78
2021/10/28 18:05:46;;;;;;;8.13;5.40;;;11.60;75.60;;;;;;5092655;28;20134;-80
2021/10/28 18:08:13;;;;;;;10.05;6.00;;;11.50;74.70;;;;;;5092425;28;20028;-80
2021/10/28 18:10:39;;;;;;;11.57;6.28;;;11.50;75.20;;;;;;5092521;28;20139;-78
2021/10/28 18:13:05;;;;;;;9.90;5.30;;;11.50;75.40;;;;;;5092527;28;20048;-79
2021/10/28 18:15:31;;;;;;;10.80;5.75;;;11.40;75.70;;;;;;5092565;28;20478;-78
2021/10/28 18:17:58;;;;;;;12.25;6.80;;;11.30;75.50;;;;;;5092605;28;20035;-80
2021/10/28 18:20:24;;;;;;;12.43;7.13;;;11.40;75.40;;;;;;5092415;28;20016;-75
2021/10/28 18:22:50;;;;;;;11.80;7.57;;;11.40;75.30;;;;;;5092515;28;20499;-79
2021/10/28 18:25:17;;;;;;;13.25;7.07;;;11.40;75.40;;;;;;5092458;28;20046;-76
2021/10/28 18:27:42;;;;;;;14.38;7.25;;;11.30;76.00;;;;;;5092148;28;20020;-78
2021/10/28 18:30:11;;;;;;;17.05;8.20;;;11.20;76.20;;;;;;5092533;28;20035;-74
2021/10/28 18:32:38;;;;;;;11.30;7.07;;;11.20;76.40;;;;;;5094340;28;20472;-77
2021/10/28 18:35:04;;;;;;;15.73;7.47;;;11.10;76.70;;;;;;5096162;28;20020;-77
2021/10/28 18:37:30;;;;;;;16.30;6.95;;;10.90;77.20;;;;;;5096053;28;20028;-75
2021/10/28 18:39:56;;;;;;;12.07;7.25;;;10.90;77.80;;;;;;5096056;28;20047;-78
2021/10/28 18:42:21;;;;;;;12.77;6.80;;;10.80;78.10;;;;;;5096142;28;20379;-78
2021/10/28 18:44:47;;;;;;;10.73;7.53;;;10.70;78.20;;;;;;5096022;28;20380;-77
2021/10/28 18:47:14;;;;;;;17.27;8.07;;;10.70;78.50;;;;;;5095826;28;20031;-75
2021/10/28 18:49:40;;;;;;;12.45;8.98;;;10.60;78.60;;;;;;5096019;28;20043;-77
2021/10/28 18:52:06;;;;;;;14.68;9.27;;;10.60;79.00;;;;;;5096111;28;20020;-74
2021/10/28 18:54:31;;;;;;;15.75;8.15;;;10.50;79.30;;;;;;5095854;28;20031;-75
2021/10/28 18:56:57;;;;;;;16.40;8.57;;;10.50;79.30;;;;;;5095545;28;20070;-75
2021/10/28 18:59:23;;;;;;;13.98;8.73;;;10.50;79.30;;;;;;5095660;28;20031;-74
2021/10/28 19:01:50;;;;;;;15.30;9.10;;;10.50;79.30;;;;;;5095316;28;20024;-77
2021/10/28 19:04:17;;;;;;;14.02;8.85;;;10.40;79.50;;;;;;5095490;28;20016;-77
2021/10/28 19:06:43;;;;;;;15.15;9.00;;;10.30;79.80;;;;;;5095365;28;20107;-77
2021/10/28 19:09:08;;;;;;;14.85;9.98;;;10.30;80.00;;;;;;5095448;28;20056;-77
2021/10/28 19:11:34;;;;;;;15.57;9.73;;;10.30;80.10;;;;;;5077145;28;20024;-77
2021/10/28 19:13:59;;;;;;;17.38;10.23;;;10.30;80.20;;;;;;5095455;28;20081;-75
2021/10/28 19:16:25;;;;;;;13.93;9.88;;;10.20;80.00;;;;;;5095202;28;20123;-75
2021/10/28 19:18:51;;;;;;;16.70;10.40;;;10.20;80.10;;;;;;5095201;28;20027;-75
2021/10/28 19:21:17;;;;;;;14.05;9.70;;;10.20;80.10;;;;;;5095207;28;20408;-76
2021/10/28 19:23:42;;;;;;;23.10;10.55;;;10.20;80.40;;;;;;5095142;28;20021;-76
2021/10/28 19:26:09;;;;;;;17.65;9.77;;;10.10;80.80;;;;;;5095031;28;20035;-75
2021/10/28 19:28:35;;;;;;;16.98;10.43;;;10.00;81.00;;;;;;5095070;28;20028;-75
2021/10/28 19:31:05;;;;;;;16.67;10.40;;;10.00;81.20;;;;;;5094952;28;20092;-74
2021/10/28 19:33:43;;;;;;;21.23;11.02;;;10.00;81.20;;;;;;5094833;28;20668;-75
2021/10/28 19:36:13;;;;;;;16.88;10.98;;;10.00;81.30;;;;;;5094876;28;20035;-74
2021/10/28 19:41:29;;;;;;;16.75;10.60;;;9.80;81.80;;;;;;5095764;28;20055;-76
2021/10/28 19:46:39;;;;;;;22.08;11.50;;;9.70;81.90;;;;;;5094713;28;20530;-75
2021/10/28 19:49:06;;;;;;;15.48;10.05;;;9.80;82.10;;;;;;5094753;28;20024;-75
2021/10/28 19:51:32;;;;;;;17.80;9.80;;;9.70;82.40;;;;;;5094568;28;20020;-75
2021/10/28 19:53:58;;;;;;;16.58;9.95;;;9.70;82.60;;;;;;5094605;28;20027;-75
2021/10/28 19:56:24;;;;;;;14.07;9.75;;;9.70;82.40;;;;;;5094554;28;20032;-76
2021/10/28 19:58:59;;;;;;;19.73;11.88;;;9.70;82.00;;;;;;5096088;28;20027;-79
2021/10/28 20:01:44;;;;;;;19.98;11.27;;;9.70;81.90;;;;;;5099915;28;20115;-79
2021/10/28 20:14:08;;;;;;;22.52;12.20;;;9.30;82.90;;;;;;5089393;28;20617;-79
2021/10/28 20:21:12;;;;;;;21.40;12.63;;;9.00;83.90;;;;;;5094194;28;20496;-79
2021/10/28 20:23:39;;;;;;;23.98;12.65;;;9.00;83.60;;;;;;5094121;28;20480;-77
2021/10/28 20:26:06;;;;;;;27.02;13.52;;;9.00;83.30;;;;;;5094089;28;20054;-79
2021/10/28 20:28:39;;;;;;;22.90;13.48;;;9.00;83.30;;;;;;5093998;28;20048;-78
2021/10/28 20:31:06;;;;;;;21.90;13.43;;;9.00;83.50;;;;;;5093976;28;20027;-77
2021/10/28 20:33:36;;;;;;;23.70;13.32;;;8.90;84.00;;;;;;5093935;28;20464;-78
2021/10/28 20:38:27;;;;;;;25.65;13.80;;;8.70;84.70;;;;;;5093920;28;20028;-77
2021/10/28 20:40:53;;;;;;;21.13;13.98;;;8.70;84.70;;;;;;5093785;28;20094;-76
2021/10/28 20:43:19;;;;;;;22.50;13.32;;;8.70;84.70;;;;;;5093616;28;20027;-77
2021/10/28 20:45:44;;;;;;;21.48;13.05;;;8.70;85.10;;;;;;5093585;28;20024;-75
2021/10/28 20:48:10;;;;;;;17.95;12.18;;;8.80;84.90;;;;;;5094916;28;20032;-79
2021/10/28 20:50:36;;;;;;;24.30;13.40;;;8.80;84.80;;;;;;5094093;28;20103;-77
2021/10/28 20:53:05;;;;;;;20.77;13.20;;;8.80;84.50;;;;;;5093804;28;20468;-81
2021/10/28 20:55:34;;;;;;;22.58;12.93;;;8.80;84.30;;;;;;5093514;28;20020;-76
2021/10/28 20:58:00;;;;;;;20.70;12.60;;;8.80;84.30;;;;;;5075893;28;20133;-78
2021/10/28 21:00:26;;;;;;;24.08;12.93;;;8.80;84.20;;;;;;5093733;28;20159;-78
2021/10/28 21:02:54;;;;;;;22.95;12.85;;;8.90;84.00;;;;;;5093733;28;20024;-79
2021/10/28 21:05:22;;;;;;;17.85;12.55;;;8.90;83.70;;;;;;5093972;28;20465;-76
2021/10/28 21:07:50;;;;;;;18.23;11.88;;;8.90;83.40;;;;;;5093784;28;20506;-74
2021/10/28 21:10:17;;;;;;;20.65;13.60;;;8.80;83.20;;;;;;5093547;28;20020;-74
2021/10/28 21:12:44;;;;;;;23.33;11.93;;;8.90;83.10;;;;;;5093402;28;20028;-74
2021/10/28 21:15:10;;;;;;;23.00;13.38;;;8.80;83.00;;;;;;5093421;28;20018;-74
2021/10/28 21:17:36;;;;;;;23.30;12.43;;;8.90;82.80;;;;;;5093254;28;20040;-73
2021/10/28 21:20:04;;;;;;;16.65;11.13;;;8.90;82.70;;;;;;5093305;28;20095;-74
2021/10/28 21:22:30;;;;;;;18.48;11.57;;;8.90;82.60;;;;;;5093020;28;20477;-74
2021/10/28 21:24:55;;;;;;;21.05;11.57;;;8.90;82.40;;;;;;5093300;28;20054;-74
2021/10/28 21:27:21;;;;;;;18.33;11.48;;;8.90;82.40;;;;;;5093260;28;20055;-74
2021/10/28 21:29:48;;;;;;;20.05;10.20;;;9.00;82.00;;;;;;5092950;28;20034;-73
2021/10/28 21:32:14;;;;;;;15.77;10.20;;;8.90;81.70;;;;;;5093294;28;20056;-74
2021/10/28 21:34:42;;;;;;;14.75;10.00;;;9.00;81.70;;;;;;5093109;28;20063;-73
2021/10/28 21:37:11;;;;;;;15.07;9.38;;;9.00;81.50;;;;;;5092940;28;20542;-76
2021/10/28 21:39:37;;;;;;;20.73;10.77;;;9.00;81.50;;;;;;5074598;28;20052;-73
2021/10/28 21:42:03;;;;;;;15.60;9.77;;;9.10;81.80;;;;;;5092935;28;20026;-74